createdAt,value
2023-05-01T00:03:58.753Z,97362.50
2023-05-01T00:14:02.036Z,97358.73
2023-05-01T00:24:05.635Z,97362.07
2023-05-01T00:34:09.610Z,97369.80
2023-05-01T00:44:12.679Z,97368.73
2023-05-01T00:54:15.820Z,97371.86
2023-05-01T01:04:18.904Z,97375.16
2023-05-01T01:14:32.309Z,97375.67
2023-05-01T01:25:00.652Z,97368.58
2023-05-01T01:35:08.211Z,97373.23
2023-05-01T01:45:22.492Z,97375.66
2023-05-01T01:55:29.713Z,97370.73
2023-05-01T02:05:33.179Z,97362.89
2023-05-01T02:15:40.439Z,97353.78
2023-05-01T02:25:45.615Z,97352.73
2023-05-01T02:35:48.771Z,97346.28
2023-05-01T02:45:55.289Z,97345.14
2023-05-01T02:55:59.477Z,97337.41
2023-05-01T03:06:03.488Z,97326.16
2023-05-01T03:16:06.918Z,97315.23
2023-05-01T03:26:11.161Z,97310.92
2023-05-01T03:36:14.380Z,97304.46
2023-05-01T03:46:17.720Z,97296.74
2023-05-01T03:56:21.546Z,97294.67
2023-05-01T04:06:25.454Z,97288.61
2023-05-01T04:16:28.895Z,97292.02
2023-05-01T04:26:32.231Z,97299.23
2023-05-01T04:36:37.250Z,97302.88
2023-05-01T04:46:40.724Z,97304.57
2023-05-01T04:56:43.924Z,97284.33
2023-05-01T05:06:47.212Z,97277.02
2023-05-01T05:16:53.002Z,97267.60
2023-05-01T05:26:57.159Z,97263.80
2023-05-01T05:37:00.348Z,97256.16
2023-05-01T05:47:04.011Z,97253.41
2023-05-01T05:57:09.746Z,97259.31
2023-05-01T06:07:16.040Z,97262.86
2023-05-01T06:17:19.151Z,97254.40
2023-05-01T06:27:22.350Z,97247.34
2023-05-01T06:37:25.637Z,97247.21
2023-05-01T06:47:28.806Z,97239.98
2023-05-01T06:57:31.966Z,97232.48
2023-05-01T07:07:35.268Z,97225.69
2023-05-01T07:17:38.618Z,97218.66
2023-05-01T07:27:41.915Z,97211.48
2023-05-01T07:37:45.182Z,97212.44
2023-05-01T07:47:48.410Z,97209.20
2023-05-01T07:57:51.666Z,97200.64
2023-05-01T08:07:54.970Z,97204.27
2023-05-01T08:17:58.105Z,97206.66
2023-05-01T08:28:01.775Z,97206.69
2023-05-01T08:38:04.933Z,97201.39
2023-05-01T08:48:10.550Z,97200.98
2023-05-01T08:58:15.460Z,97193.45
2023-05-01T09:08:18.522Z,97187.87
2023-05-01T09:18:21.826Z,97176.61
2023-05-01T09:28:45.730Z,97164.83
2023-05-01T09:38:49.010Z,97158.67
2023-05-01T09:48:55.708Z,97148.70
2023-05-01T09:59:15.545Z,97127.38
2023-05-01T10:09:28.298Z,97118.86
2023-05-01T10:19:31.881Z,97116.59
2023-05-01T10:29:37.140Z,97101.95
2023-05-01T10:39:40.847Z,97092.38
2023-05-01T10:50:04.914Z,97081.39
2023-05-01T11:00:08.256Z,97074.92
2023-05-01T11:10:26.938Z,97073.23
2023-05-01T11:20:35.972Z,97058.75
2023-05-01T11:30:40.719Z,97052.02
2023-05-01T11:40:44.204Z,97039.97
2023-05-01T11:50:47.588Z,97034.80
2023-05-01T12:00:51.099Z,97019.80
2023-05-01T12:10:58.937Z,97010.41
2023-05-01T12:21:02.318Z,97009.49
2023-05-01T12:31:06.434Z,96995.16
2023-05-01T12:41:12.313Z,96983.84
2023-05-01T12:51:20.562Z,96966.13
2023-05-01T13:01:30.263Z,96953.83
2023-05-01T13:11:33.722Z,96950.29
2023-05-01T13:21:48.153Z,96941.94
2023-05-01T13:31:51.269Z,96928.31
2023-05-01T13:41:54.946Z,96916.60
2023-05-01T13:51:57.983Z,96904.34
2023-05-01T14:02:01.384Z,96891.83
2023-05-01T14:12:04.645Z,96890.27
2023-05-01T14:22:08.293Z,96882.46
2023-05-01T14:32:11.916Z,96875.98
2023-05-01T14:42:15.145Z,96854.73
2023-05-01T14:52:22.563Z,96848.70
2023-05-01T15:02:25.876Z,96846.45
2023-05-01T15:12:29.404Z,96841.20
2023-05-01T15:22:32.684Z,96834.59
2023-05-01T15:32:37.446Z,96825.80
2023-05-01T15:42:40.989Z,96821.30
2023-05-01T15:52:44.203Z,96811.27
2023-05-01T16:03:14.078Z,96809.06
2023-05-01T16:13:17.498Z,96818.73
2023-05-01T16:23:22.125Z,96807.27
2023-05-01T16:33:25.443Z,96799.00
2023-05-01T16:43:29.910Z,96795.20
2023-05-01T16:53:33.164Z,96797.86
2023-05-01T17:03:37.160Z,96802.62
2023-05-01T17:13:40.443Z,96801.42
2023-05-01T17:23:43.808Z,96803.45
2023-05-01T17:33:47.603Z,96802.55
2023-05-01T17:43:50.973Z,96803.86
2023-05-01T17:53:54.007Z,96804.58
2023-05-01T18:03:57.995Z,96804.41
2023-05-01T18:14:01.904Z,96811.34
2023-05-01T18:24:05.523Z,96813.11
2023-05-01T18:34:34.038Z,96809.02
2023-05-01T18:44:37.117Z,96813.81
2023-05-01T18:54:40.263Z,96818.69
2023-05-01T19:04:56.673Z,96820.17
2023-05-01T19:15:00.426Z,96822.33
2023-05-01T19:25:03.845Z,96821.57
2023-05-01T19:35:11.745Z,96821.78
2023-05-01T19:45:17.030Z,96818.34
2023-05-01T19:55:21.488Z,96818.89
2023-05-01T20:05:28.368Z,96825.52
2023-05-01T20:15:31.948Z,96829.73
2023-05-01T20:25:35.025Z,96829.73
2023-05-01T20:35:38.569Z,96835.86
2023-05-01T20:45:41.772Z,96834.76
2023-05-01T20:55:45.857Z,96843.39
2023-05-01T21:05:49.004Z,96845.17
2023-05-01T21:15:52.784Z,96853.23
2023-05-01T21:25:56.157Z,96864.55
2023-05-01T21:35:59.661Z,96872.27
2023-05-01T21:46:03.051Z,96884.27
2023-05-01T21:56:07.084Z,96895.34
2023-05-01T22:06:10.497Z,96902.77
2023-05-01T22:16:14.766Z,96903.66
2023-05-01T22:26:43.278Z,96904.48
2023-05-01T22:36:46.554Z,96910.66
2023-05-01T22:47:15.132Z,96916.35
2023-05-01T22:57:18.741Z,96920.56
2023-05-01T23:07:22.541Z,96915.89
2023-05-01T23:17:31.321Z,96927.26
2023-05-01T23:27:40.402Z,96926.00
2023-05-01T23:37:44.057Z,96919.94
2023-05-01T23:47:47.197Z,96919.93
2023-05-01T23:57:50.232Z,96922.25
